AirNav   Pilot Hours Calculator
 
 708 users online  

2MO3 Independence Regional Health Center Heliport
Independence, Missouri, USA

GOING TO INDEPENDENCE?


FAA INFORMATION EFFECTIVE 05 DECEMBER 2019

Location

FAA Identifier: 2MO3
Lat/Long: 39-05-38.9100N 094-26-06.4500W
39-05.648500N 094-26.107500W
39.0941417,-94.4351250
(estimated)
Elevation: 952 ft. / 290 m (estimated)
Variation: 05E (1990)
Time zone: UTC -6 (UTC -5 during Daylight Saving Time)
Zip code: 64050

Heliport Operations

Heliport use: Private use, MEDICAL USE.
Activation date: 03/1993
Control tower: no
ARTCC: KANSAS CITY CENTER
FSS: COLUMBIA FLIGHT SERVICE STATION
Attendance: CONTINUOUS
Wind indicator: yes
Segmented circle: no

Heliport Communications

WX ASOS at MKC (8 nm W): PHONE 816-329-2843
WX ASOS at LXT (9 nm S): 124.175 (816-347-9807)
WX AWOS-3 at GPH (15 nm N): 120.275 (816-407-3399)
WX ASOS at MCI (18 nm NW): 128.375 (816-329-2808)

Nearby radio navigation aids

VOR radial/distance  VOR name  Freq  Var
ANXr263/14.3NAPOLEON VORTAC114.0007E
MCIr124/18.1KANSAS CITY VORTAC113.2505E

Heliport Services

Runway Information

Helipad H1

Dimensions: 30 x 30 ft. / 9 x 9 m
Surface: asphalt
Latitude: 39-05.648500N
Longitude: 094-26.107500W
Elevation: 952.0 ft.
Traffic pattern: leftleft

Heliport Ownership and Management from official FAA records

Ownership: Privately-owned
Owner: INDEPENDENCE REGIONAL HEALTH
1509 W. TRUMAN ROAD
INDEPENDENCE, MO 64050
Phone 816-836-8100
Manager: EDDIE JORGENSON
1509 W. TRUMAN ROAD
INDEPENDENCE, MO 64050
Phone 816-836-8100

Additional Remarks

OWNER DESIRES HELIPORT NOT BE CHARTED.
FOR CD CTC KANSAS CITY APCH AT 816-329-2710.

Instrument Procedures

There are no published instrument procedures at 2MO3.

Some nearby airports with instrument procedures:

KMKC - Charles B Wheeler Downtown Airport (8 nm W)
KLXT - Lee's Summit Municipal Airport (9 nm S)
3GV - East Kansas City Airport (11 nm SE)
KGPH - Midwest National Air Center Airport (15 nm N)
KMCI - Kansas City International Airport (18 nm NW)
3EX - Excelsior Springs Memorial Airport (18 nm NE)
 
Loc | Ops | Rwys | IFR | FBO | Links
Com | Nav | Svcs | Stats | Notes

Kansas City Aviation Department
 
Area around 2MO3 (Independence Regional Health Center Heliport)
 
Road maps at: MapQuest Bing Google
 
Aerial photo
No photo
 
Sectional chart

 
Airport distance calculator
Flying to Independence Regional Health Center Heliport? Find the distance to fly.

From to 2MO3

Sunrise and sunset
Times for 07-Dec-2019
 Local
(UTC-6)
 Zulu
(UTC)
Morning civil twilight06:5512:55
Sunrise07:2513:25
Sunset16:5422:54
Evening civil twilight17:2423:24

Current date and time
Zulu (UTC)  08-Dec-2019 03:17:02
Local (UTC-6)  07-Dec-2019 21:17:02
 
METAR
KMKC 
8nm W 
080254Z 19004KT 10SM CLR 06/M03 A3006 RMK AO2 SLP182 T00561028 58014
KLXT 
8nm SE 
080253Z AUTO 17011KT 10SM CLR 06/M03 A3006 RMK AO2 SLP186 T00561028 58019
KGPH 
15nm N 
080255Z AUTO 00000KT 10SM CLR 03/M02 A3007 RMK AO2
KMCI 
19nm NW 
080253Z 17011KT 10SM SCT200 04/M02 A3004 RMK AO2 SLP178 T00441022 58014
TAF
KMKC 
8nm W 
071720Z 0718/0818 18009KT P6SM FEW250 FM080600 19010KT P6SM SCT250 WS020/22040KT FM081200 19012KT P6SM SCT250
KMCI 
19nm NW 
071720Z 0718/0818 18009KT P6SM FEW250 FM080600 19010KT P6SM SCT250 WS020/22040KT FM081200 19012KT P6SM SCT250
NOTAMs
Click for the latest NOTAMs
NOTAMs are issued by the DoD/FAA and will open in a separate window not controlled by AirNav.

 

 
 

Would you like to see your business listed on this page?

 If your business provides an interesting product or service to pilots, flight crews, aircraft, or users of the Independence Regional Health Center Heliport, you should consider listing it here.  To start the listing process, click on the button below
 
Add a business
 

Other Pages about Independence Regional Health Center Heliport

Update a link
 
Copyright © AirNav, LLC. All rights reserved. Privacy Policy  Contact